This is the latest recevied weather packets stored in our database for station/object OK5TVR-14. If no packets are shown the sender has not sent any weather packets the latest 10 day(s).
| Time | Temp. | Humidity | Pressure | Rain* | Wind** | Luminosity | Snow |
|---|---|---|---|---|---|---|---|
| 1788301311 | 16.67° C | 65% | 1017.2 hPa | 0 mm | - | 0 W/m² | - |
| 1788299511 | 16.67° C | 64% | 1017.3 hPa | 0 mm | - | 0 W/m² | - |
| 1788296811 | 17.22° C | 63% | 1016.9 hPa | 0 mm | - | 0 W/m² | - |
| 1788290511 | 19.44° C | 59% | 1016.3 hPa | 0 mm | - | 0 W/m² | - |
| 1788288711 | 18.89° C | 61% | 1016.2 hPa | 0 mm | - | 0 W/m² | - |
| 1788287215 | 21.11° C | 55% | 1015.6 hPa | 0 mm | - | 0 W/m² | - |
| 1788286315 | 21.11° C | 54% | 1015.3 hPa | 0 mm | - | 0 W/m² | - |
| 1788284515 | 22.22° C | 50% | 1015 hPa | 0 mm | - | 0 W/m² | - |
| 1788283615 | 22.22° C | 51% | 1015 hPa | 0 mm | - | 0 W/m² | - |
| 1788282715 | 23.33° C | 47% | 1014.8 hPa | 0 mm | - | 0 W/m² | - |
| 1788280915 | 24.44° C | 45% | 1014.6 hPa | 0 mm | - | 0 W/m² | - |
| 1788280015 | 25.56° C | 43% | 1014.5 hPa | 0 mm | - | 0 W/m² | - |
| 1788279115 | 25.56° C | 43% | 1014.5 hPa | 0 mm | - | 0 W/m² | - |
| 1788278215 | 26.11° C | 41% | 1014.4 hPa | 0 mm | - | 0 W/m² | - |
| 1788277315 | 26.11° C | 40% | 1014.4 hPa | 0 mm | - | 0 W/m² | - |
| 1788272815 | 28.33° C | 34% | 1014 hPa | 0 mm | - | 0 W/m² | - |
| 1788271014 | 28.33° C | 37% | 1014.2 hPa | 0 mm | - | 0 W/m² | - |
| 1788270114 | 27.78° C | 39% | 1014.4 hPa | 0 mm | - | 0 W/m² | - |
| 1788269214 | 27.78° C | 38% | 1014.6 hPa | 0 mm | - | 0 W/m² | - |
| 1788268314 | 27.22° C | 41% | 1014.6 hPa | 0 mm | - | 0 W/m² | - |
| 1788267414 | 27.22° C | 41% | 1014.7 hPa | 0 mm | - | 0 W/m² | - |
| 1788266514 | 27.22° C | 41% | 1014.8 hPa | 0 mm | - | 0 W/m² | - |
| 1788265614 | 25.56° C | 44% | 1015.1 hPa | 0 mm | - | 0 W/m² | - |
| 1788264715 | 26.67° C | 42% | 1015 hPa | 0 mm | - | 0 W/m² | - |
| 1788263814 | 25.56° C | 44% | 1015.3 hPa | 0 mm | - | 0 W/m² | - |
* Rain latest hour (hover to see other rain measurements)
** Current wind speed in m/s (hover to see current wind gust speed)